全部
Kyogle Hospital Airport YXKO 天气
There is no TAF data available at YXKO. Showing TAF data for YLIS (21 mi SE).
LSY终端机场天气预报(YXKO无数据)
| Here is the undecoded forecast: 2026/05/05 18:40 YLIS 051840Z 0520/0608 23005KT 9999 -DZ BKN006 BECMG 0523/0601 20008KT 9999 -SHRA SCT020 TEMPO 0520/0523 3000 DZ BKN004 INTER 0523/0605 3000 SHRA BKN010 FEW020TCU RMK T 18 18 19 20 Q 1018 1019 1017 1016 |
There is no METAR data available at YXKO. Showing METAR data for YCAS (18 mi S).
CSI近期METAR历史数据(YXKO无数据)
| Date | Time (AEST) | Flight Rules | Wind Dir. | Speed | Type | Height AGL (ft) | Visibility | Temp (°C) | Temp (°F) | Dew Point (°C) | Dew Point (°F) | Rel. Humid. | Pressure | Density Altitude | Remarks |
|---|---|---|---|---|---|---|---|---|---|---|---|---|---|---|---|
| 06-五月 | 07:00 | n/a | 210° | 5 kt | Missing | 18° | 64° | 17° | 62° | 94% | 1019 mb | 274 ft | |||
| 06-五月 | 06:00 | n/a | 200° | 7 kt | Missing | 18° | 64° | 17° | 62° | 94% | 1018 mb | 303 ft | |||
| 06-五月 | 05:00 | n/a | 210° | 7 kt | Missing | 19° | 66° | 18° | 64° | 94% | 1017 mb | 453 ft | |||
| 06-五月 | 04:00 | n/a | 210° | 5 kt | Missing | 19° | 66° | 18° | 64° | 94% | 1017 mb | 453 ft | |||
| 06-五月 | 03:00 | n/a | 200° | 7 kt | Missing | 19° | 66° | 18° | 64° | 94% | 1017 mb | 453 ft | |||
| 06-五月 | 02:00 | n/a | 200° | 7 kt | Missing | 19° | 66° | 18° | 64° | 94% | 1017 mb | 453 ft | |||
| 06-五月 | 01:00 | n/a | 210° | 5 kt | Missing | 19° | 66° | 19° | 66° | 100% | 1018 mb | 423 ft | |||
| 06-五月 | 00:00 | n/a | 190° | 4 kt | Missing | 19° | 66° | 19° | 66° | 100% | 1018 mb | 423 ft | |||
| 05-五月 | 23:00 | n/a | 230° | 5 kt | Missing | 20° | 68° | 19° | 66° | 94% | 1018 mb | 543 ft | |||
| 05-五月 | 22:00 | n/a | 210° | 5 kt | Missing | 20° | 68° | 19° | 66° | 94% | 1019 mb | 514 ft | |||
| 05-五月 | 21:00 | n/a | 190° | 5 kt | Missing | 21° | 69° | 19° | 66° | 88% | 1019 mb | 634 ft | |||
| 05-五月 | 20:00 | n/a | 220° | 6 kt | Missing | 21° | 69° | 19° | 66° | 88% | 1018 mb | 663 ft | |||
| 05-五月 | 19:00 | n/a | 170° | 5 kt | Missing | 21° | 69° | 19° | 66° | 88% | 1018 mb | 663 ft | |||
| 05-五月 | 18:00 | n/a | 140° | 6 kt | Missing | 22° | 71° | 18° | 64° | 78% | 1017 mb | 813 ft | |||
| 05-五月 | 17:00 | n/a | 130° | 3 kt | Missing | 23° | 73° | 18° | 64° | 73% | 1015 mb | 992 ft | |||
| 05-五月 | 16:00 | n/a | 120° | 2 kt | Missing | 26° | 78° | 18° | 64° | 61% | 1015 mb | 1,352 ft | |||
| 05-五月 | 15:00 | n/a | 70° | 4 kt | Missing | 27° | 80° | 17° | 62° | 54% | 1014 mb | 1,502 ft | |||
| 05-五月 | 14:00 | n/a | 260° | 2 kt | Missing | 27° | 80° | 17° | 62° | 54% | 1014 mb | 1,502 ft | |||
| 05-五月 | 13:00 | n/a | 340° | 1 kt | Missing | 26° | 78° | 17° | 62° | 58% | 1015 mb | 1,352 ft | |||
| 05-五月 | 12:00 | n/a | 350° | 3 kt | Missing | 25° | 77° | 18° | 64° | 65% | 1016 mb | 1,203 ft | |||
| 05-五月 | 11:00 | n/a | 290° | 3 kt | Missing | 25° | 77° | 19° | 66° | 69% | 1017 mb | 1,173 ft | |||
| 05-五月 | 10:00 | n/a | 300° | 4 kt | Missing | 22° | 71° | 19° | 66° | 83% | 1018 mb | 783 ft | |||
| 05-五月 | 09:00 | n/a | 310° | 4 kt | Missing | 19° | 66° | 19° | 66° | 100% | 1018 mb | 423 ft | |||
| 05-五月 | 08:00 | n/a | 350° | 4 kt | Missing | 19° | 66° | 18° | 64° | 94% | 1018 mb | 423 ft |
登录
| 您的浏览器不支持. 升级您的浏览器 |
